• Join FlightAware (Why Join?)
  • Login
  • US Flag 
06:49AM EDT


 

Airport Tracker/Info


-or-


 

Live Flight TrackerFlight Track Log ✈ BJS444 ✈ 21-Apr-2013 ✈ KCHS - KBED

Flight Track Log - Related Links

Times and Time Zones

All times are in EDT time to prevent confusion due to time zone crossing. See the BJS444 flight status page for this flight to view local times or setup timezone preferences in your user account.

Time Position Orientation Groundspeed Altitude Reporting Facility
EDT Latitude Longitude Course Direction KTS MPH feet Rate Location/Type
12:45PM 32.9189 -80.0194 70° East 165 190 2,400  Level Jacksonville Center
12:46PM 32.9383 -79.9544 70° East 215 247 5,500 3,600 Climbing Jacksonville Center
12:48PM 32.9944 -79.7719 70° East 277 319 13,300 3,960 Climbing Jacksonville Center
12:49PM 33.0397 -79.6639 63° Northeast 325 374 17,400 3,540 Climbing Jacksonville Center
12:50PM 33.1036 -79.5550 55° Northeast 365 420 20,400 2,520 Climbing Jacksonville Center
12:51PM 33.1692 -79.4308 58° Northeast 401 461 22,500 2,040 Climbing Jacksonville Center
12:52PM 33.2706 -79.3250 41° Northeast 449 517 24,500 2,820 Climbing Jacksonville Center
12:53PM 33.3894 -79.2506 28° Northeast 465 535 28,200 3,120 Climbing Jacksonville Center
12:54PM 33.5061 -79.1761 28° Northeast 460 529 30,800 2,340 Climbing Jacksonville Center
12:55PM 33.6025 -79.1122 29° Northeast 460 529 32,900 1,980 Climbing Jacksonville Center
12:56PM 33.7192 -79.0400 27° Northeast 452 520 34,800 1,980 Climbing Jacksonville Center
12:57PM 33.8378 -78.9647 28° Northeast 457 526 36,900 1,560 Climbing Jacksonville Center
12:58PM 33.9522 -78.8869 29° Northeast 462 532 38,000 900 Climbing Jacksonville Center
12:59PM 34.0747 -78.8061 29° Northeast 472 543 38,800 420 Climbing Jacksonville Center
01:00PM 34.1975 -78.7275 28° Northeast 484 557 38,900 60 Climbing Jacksonville Center
01:02PM 34.4561 -78.4808 38° Northeast 478 550 39,000  Climbing Washington Center
01:03PM 34.5408 -78.3428 53° Northeast 492 566 39,000 240 Level Washington Center
01:04PM 34.6275 -78.2017 53° Northeast 505 581 39,500 1,020 Climbing Washington Center
01:05PM 34.7117 -78.0656 53° Northeast 512 589 41,100 1,260 Climbing Washington Center
01:06PM 34.8122 -77.9497 43° Northeast 506 582 42,100 960 Climbing Washington Center
01:07PM 34.9058 -77.8536 40° Northeast 489 563 43,100 960 Climbing Washington Center
01:08PM 35.0078 -77.7525 39° Northeast 484 557 44,100 780 Climbing Washington Center
01:09PM 35.1119 -77.6486 39° Northeast 479 551 44,700 420 Climbing Washington Center
01:10PM 35.2258 -77.5625 32° Northeast 474 545 45,000 120 Climbing Washington Center
01:11PM 35.3442 -77.4867 28° Northeast 474 545 45,000  Level Washington Center
01:12PM 35.4661 -77.4103 27° Northeast 474 545 45,000  Level Washington Center
01:13PM 35.5883 -77.3314 28° Northeast 486 559 45,000  Level Washington Center
01:14PM 35.7125 -77.2547 27° Northeast 486 559 45,000  Level Washington Center
01:15PM 35.8347 -77.1778 27° Northeast 492 566 45,000  Level Washington Center
01:16PM 35.9631 -77.0908 29° Northeast 492 566 45,000  Level Washington Center
01:17PM 36.0850 -77.0133 27° Northeast 487 560 45,000  Level Washington Center
01:18PM 36.2092 -76.9358 27° Northeast 487 560 45,000  Level Washington Center
01:19PM 36.3308 -76.8578 27° Northeast 487 560 45,000  Level Washington Center
01:20PM 36.4528 -76.7797 27° Northeast 487 560 45,000  Level Washington Center
01:21PM 36.5767 -76.7014 27° Northeast 487 560 45,000  Level Washington Center
01:22PM 36.6983 -76.6203 28° Northeast 487 560 45,000  Level Washington Center
01:23PM 36.8200 -76.5364 29° Northeast 487 560 45,000  Level Washington Center
01:24PM 36.9311 -76.4622 28° Northeast 493 567 45,000  Level Washington Center
01:25PM 37.0547 -76.3831 27° Northeast 493 567 45,000  Level Washington Center
01:26PM 37.1761 -76.3008 28° Northeast 499 574 45,000  Level Washington Center
01:27PM 37.2997 -76.2183 28° Northeast 494 568 45,000  Level Washington Center
01:28PM 37.4378 -76.1333 26° Northeast 494 568 45,000  Level Washington Center
01:29PM 37.5611 -76.0503 28° Northeast 494 568 45,000  Level Washington Center
01:30PM 37.6844 -75.9669 28° Northeast 494 568 45,000 420 Level Washington Center
01:31PM 37.7911 -75.8886 30° Northeast 494 568 45,900 600 Climbing Washington Center
01:32PM 37.9247 -75.7997 28° Northeast 494 568 46,300 360 Climbing Washington Center
01:33PM 38.0208 -75.7367 27° Northeast 489 563 46,700 300 Climbing Washington Center
01:34PM 38.1461 -75.6444 30° Northeast 484 557 47,000 120 Climbing Washington Center
01:35PM 38.2817 -75.5519 28° Northeast 485 558 47,000  Level Washington Center
01:36PM 38.3919 -75.4911 23° Northeast 485 558 47,000  Level Washington Center
01:37PM 38.5253 -75.4378 17° North 485 558 47,000  Level Washington Center
01:38PM 38.6589 -75.3844 17° North 490 564 47,000  Level Washington Center
01:39PM 38.7919 -75.3306 18° North 495 570 47,000  Level Washington Center
01:40PM 38.9253 -75.2742 18° North 500 575 47,000  Level Washington Center
01:41PM 39.0564 -75.2147 19° North 500 575 47,000  Level Washington Center
01:42PM 39.1875 -75.1525 20° North 500 575 47,000  Level Washington Center
01:43PM 39.3017 -75.0364 38° Northeast 500 575 47,000  Level Washington Center
01:44PM 39.4075 -74.9175 41° Northeast 505 581 47,000  Level Washington Center
01:45PM 39.5150 -74.7925 42° Northeast 505 581 47,000 -840 Level Washington Center
01:47PM 39.7689 -74.5033 41° Northeast 515 593 44,300 -1,200 Descending New York Center
01:48PM 39.8769 -74.3792 41° Northeast 509 586 42,900 -1,440 Descending New York Center
01:49PM 39.9850 -74.2547 41° Northeast 509 586 41,400 -1,560 Descending New York Center
01:50PM 40.0972 -74.1219 42° Northeast 514 592 39,900 -1,860 Descending New York Center
01:51PM 40.2072 -73.9942 42° Northeast 519 597 37,800 -2,580 Descending New York Center
01:52PM 40.3125 -73.8739 41° Northeast 509 586 34,700 -3,240 Descending New York Center
01:53PM 40.4242 -73.7428 42° Northeast 497 572 31,300 -3,300 Descending New York Center
01:55PM 40.5756 -73.5603 42° Northeast 520 598 26,200 -3,120 Descending Boston Center
01:56PM 40.6997 -73.4119 42° Northeast 514 592 23,300 -1,620 Descending Boston Center
01:57PM 40.8008 -73.3011 40° Northeast 487 560 23,000 -180 Descending Boston Center
01:58PM 40.8806 -73.2058 42° Northeast 481 554 23,000  Level Boston Center
01:59PM 41.0025 -73.0617 42° Northeast 476 548 23,000  Level Boston Center
02:00PM 41.1008 -72.9469 41° Northeast 476 548 23,000 -360 Level Boston Center
02:01PM 41.1972 -72.8317 42° Northeast 476 548 22,300 -1,680 Descending Boston Center
02:02PM 41.2956 -72.7136 42° Northeast 460 529 19,700 -2,160 Descending Boston Center
02:03PM 41.4039 -72.6558 22° Northeast 419 482 17,600 -1,980 Descending Boston Center
02:04PM 41.5144 -72.6092 18° North 395 455 15,400 -1,260 Descending Boston Center
02:05PM 41.6125 -72.5650 19° North 344 396 15,100 -180 Descending Boston Center
02:06PM 41.6856 -72.5042 32° Northeast 339 390 15,100 -240 Level Boston Center
02:06PM 41.7147 -72.4706 41° Northeast 367 422 14,800 -1,740 Descending Boston Center
02:07PM 41.7689 -72.4094 40° Northeast 351 404 13,400 -1,860 Descending Boston Center
02:08PM 41.8294 -72.3425 39° Northeast 329 379 11,600 -1,200 Descending Boston Center
02:09PM 41.8897 -72.2756 40° Northeast 286 329 11,100 -600 Descending Boston Center
02:10PM 41.9583 -72.1917 42° Northeast 284 327 10,400 -900 Descending Boston Center
02:11PM 42.0122 -72.1328 39° Northeast 268 308 9,300 -1,200 Descending Boston Center
02:12PM 42.0664 -72.0708 40° Northeast 263 303 8,100 -1,200 Descending Boston Center
02:13PM 42.1244 -72.0061 40° Northeast 271 312 6,900 -1,260 Descending Boston Center
02:14PM 42.1783 -71.9497 38° Northeast 246 283 5,600 -900 Descending Boston Center
02:15PM 42.2283 -71.8961 38° Northeast 224 258 5,100 -240 Descending Boston Center
02:17PM 42.3333 -71.7667 42° Northeast 228 262 5,000 -60 Descending KA90
02:18PM 42.3833 -71.7167 36° Northeast 216 249 5,000 -480 Level KA90
02:19PM 42.4000 -71.6500 71° East 191 220 4,100 -840 Descending KA90
02:20PM 42.4333 -71.6000 48° Northeast 197 227 3,400 -600 Descending KA90
02:21PM 42.4833 -71.5333 45° Northeast 208 239 3,000 -180 Descending KA90
02:22PM 42.5000 -71.4833 66° East 181 208 3,100  Climbing KA90
02:23PM 42.5333 -71.4167 56° Northeast 186 214 3,100 -60 Level KA90
02:24PM 42.4833 -71.4167 180° South 193 222 3,000 -60 Descending KA90
02:25PM 42.4333 -71.4500 206° Southwest 194 223 3,000  Level KA90
02:26PM 42.3833 -71.4500 180° South 187 215 3,100 -180 Climbing KA90
02:27PM 42.3333 -71.4333 166° South 181 208 2,700 -540 Descending KA90
02:28PM 42.3500 -71.3833 66° East 176 203 2,100 -540 Descending KA90
02:29PM 42.4000 -71.3667 14° North 182 209 1,700 -540 Descending KA90
02:30PM 42.4333 -71.3333 36° Northeast 135 155 1,100 -600 Descending KA90
02:31PM 42.4500 -71.3000 56° Northeast 116 133 600 -540 Descending KA90
02:33PM 42.4667 -71.2833 66° East  Level FlightAware Approximate